Time;durP1;ratioP1;P1;durP2;ratioP2;P2;SDS_P1;SDS_P2;PMS_P1;PMS_P2;Temp;Humidity;BMP_temperature;BMP_pressure;BME280_temperature;BME280_humidity;BME280_pressure;Samples;Min_cycle;Max_cycle;Signal;HPM_P1;HPM_P2
2022/12/15 00:41:02;;;;;;;25.45;10.32;;;;;;;-9.66;81.79;99894.97;5055953;28;20183;-68
2022/12/15 00:43:29;;;;;;;29.02;10.73;;;;;;;-9.67;81.73;99903.03;5054938;28;20199;-67
2022/12/15 00:48:49;;;;;;;32.47;12.55;;;;;;;-9.61;79.30;99904.88;5018788;28;20208;-67
2022/12/15 00:51:16;;;;;;;41.03;19.80;;;;;;;-9.59;78.22;99902.91;5055628;28;20300;-67
2022/12/15 01:21:09;;;;;;;8.38;5.65;;;;;;;-9.90;80.42;99924.16;5095299;28;20237;-67
2022/12/15 01:23:38;;;;;;;21.17;13.02;;;;;;;-9.92;80.81;99926.94;5094362;28;20209;-67
2022/12/15 01:26:06;;;;;;;24.50;11.93;;;;;;;-9.89;80.14;99932.81;5095339;28;20206;-67
2022/12/15 01:28:33;;;;;;;27.42;14.43;;;;;;;-9.97;79.57;99934.53;5091890;28;20245;-67
2022/12/15 01:31:00;;;;;;;19.10;12.38;;;;;;;-9.92;80.08;99933.97;5095299;28;20595;-67
2022/12/15 01:33:26;;;;;;;23.48;12.25;;;;;;;-9.84;80.04;99931.25;5085660;28;20199;-67
2022/12/15 01:35:57;;;;;;;20.20;8.50;;;;;;;-9.84;79.53;99927.84;5074989;28;20203;-69
2022/12/15 01:38:24;;;;;;;20.60;10.57;;;;;;;-9.80;79.32;99934.31;5080426;28;20222;-67
2022/12/15 01:40:53;;;;;;;24.35;12.75;;;;;;;-9.89;79.78;99940.66;5094683;28;20302;-67
2022/12/15 01:43:22;;;;;;;25.70;14.48;;;;;;;-9.94;81.19;99934.19;5089451;28;20639;-67
2022/12/15 01:45:55;;;;;;;17.77;8.60;;;;;;;-9.82;80.62;99929.28;5094589;28;20682;-67
2022/12/15 01:48:34;;;;;;;22.30;14.15;;;;;;;-9.60;78.70;99940.59;5092766;28;20309;-67
2022/12/15 01:51:10;;;;;;;25.08;12.50;;;;;;;-9.54;79.54;99944.28;5094770;28;20210;-67
2022/12/15 01:53:42;;;;;;;26.80;10.50;;;;;;;-9.58;80.35;99945.66;5089140;28;20217;-67
2022/12/15 01:56:11;;;;;;;23.08;10.77;;;;;;;-9.72;81.31;99945.50;5094403;28;20281;-67
2022/12/15 01:58:42;;;;;;;35.78;16.13;;;;;;;-9.83;81.86;99938.13;5092597;28;20320;-67
2022/12/15 02:01:10;;;;;;;22.23;14.55;;;;;;;-9.83;81.97;99940.72;5094592;28;20262;-67
2022/12/15 02:03:38;;;;;;;18.67;12.77;;;;;;;-9.82;81.06;99928.47;5088947;28;20265;-67
2022/12/15 02:06:06;;;;;;;24.25;13.30;;;;;;;-9.88;80.46;99927.38;5094288;28;20698;-67
2022/12/15 02:08:33;;;;;;;26.35;14.20;;;;;;;-9.89;80.07;99932.81;5091020;28;20304;-67
2022/12/15 02:11:28;;;;;;;26.05;12.15;;;;;;;-10.03;81.29;99940.53;5093921;28;20615;-67
2022/12/15 02:14:01;;;;;;;21.45;10.20;;;;;;;-10.04;80.92;99938.91;5070759;28;20209;-67
2022/12/15 02:16:37;;;;;;;40.67;11.98;;;;;;;-9.99;82.37;99947.00;5094410;28;20225;-67
2022/12/15 02:19:22;;;;;;;16.83;9.75;;;;;;;-9.99;81.17;99944.41;5090820;28;20258;-67
2022/12/15 02:22:03;;;;;;;29.50;13.52;;;;;;;-9.99;82.37;99947.00;5093898;28;20700;-67
2022/12/15 02:24:46;;;;;;;24.00;13.27;;;;;;;-9.98;82.50;99947.81;5088023;28;20202;-67
2022/12/15 02:27:30;;;;;;;12.40;8.48;;;;;;;-9.77;82.50;99960.16;5094111;28;20190;-68
2022/12/15 02:30:18;;;;;;;17.45;8.85;;;;;;;-9.48;80.28;99960.06;5053790;28;20670;-67
2022/12/15 02:32:54;;;;;;;24.67;10.05;;;;;;;-9.62;80.13;99979.25;5054805;28;20649;-67
2022/12/15 02:35:26;;;;;;;25.67;9.20;;;;;;;-9.66;81.18;99985.88;5091991;28;20199;-67
2022/12/15 02:37:52;;;;;;;24.23;14.18;;;;;;;-9.54;80.63;99987.03;5092295;28;20536;-67
2022/12/15 02:40:19;;;;;;;17.55;10.60;;;;;;;-9.38;79.81;99980.75;5089962;28;20226;-67
2022/12/15 02:42:49;;;;;;;21.38;13.15;;;;;;;-9.62;79.31;99976.66;5090379;28;20589;-67
2022/12/15 02:45:23;;;;;;;25.85;12.80;;;;;;;-9.64;78.81;99994.38;5092218;28;20226;-68
2022/12/15 02:48:04;;;;;;;38.15;14.07;;;;;;;-9.56;78.64;99999.50;5091382;28;20313;-67
2022/12/15 02:51:00;;;;;;;26.20;11.48;;;;;;;-9.60;78.75;99998.25;5091403;28;20211;-67
2022/12/15 02:54:03;;;;;;;24.23;11.43;;;;;;;-9.59;78.61;99989.38;5087929;28;20197;-67
2022/12/15 02:56:39;;;;;;;22.63;10.75;;;;;;;-9.45;78.22;99998.19;5093523;28;20193;-67
2022/12/15 02:59:10;;;;;;;21.80;13.25;;;;;;;-9.35;78.42;99998.72;5089170;28;20308;-67
2022/12/15 03:01:44;;;;;;;26.45;13.77;;;;;;;-9.31;78.63;100004.41;5093880;28;20195;-67
2022/12/15 03:04:12;;;;;;;19.83;10.57;;;;;;;-9.32;80.27;100000.16;5088192;28;20328;-67
2022/12/15 03:06:39;;;;;;;37.65;15.48;;;;;;;-9.14;81.84;100005.78;5093452;28;20285;-67
2022/12/15 03:09:05;;;;;;;31.60;13.45;;;;;;;-9.03;81.71;99999.22;5090238;28;20221;-67
2022/12/15 03:11:32;;;;;;;31.98;14.35;;;;;;;-8.93;81.33;99999.72;5093385;28;20218;-68
2022/12/15 03:13:58;;;;;;;27.55;13.27;;;;;;;-8.86;80.81;99999.75;5086761;28;20310;-68
2022/12/15 03:16:25;;;;;;;22.13;13.57;;;;;;;-8.79;80.44;100004.06;5093418;28;20225;-68
2022/12/15 03:18:53;;;;;;;30.33;15.60;;;;;;;-8.77;81.58;100003.88;5091021;28;20234;-68
2022/12/15 03:21:20;;;;;;;22.63;11.30;;;;;;;-8.63;83.27;99992.50;5091068;28;20285;-68
2022/12/15 03:23:46;;;;;;;20.20;11.07;;;;;;;-8.48;84.35;100003.72;5087449;28;20289;-68
2022/12/15 03:26:13;;;;;;;46.92;14.25;;;;;;;-8.41;86.86;99996.69;5092986;28;20668;-70
2022/12/15 03:28:39;;;;;;;35.80;16.83;;;;;;;-8.41;90.51;100003.75;5091355;28;20309;-68
2022/12/15 03:31:06;;;;;;;38.35;16.63;;;;;;;-8.32;91.29;100007.00;5093170;28;20313;-68
2022/12/15 03:33:33;;;;;;;49.92;16.25;;;;;;;-8.02;91.25;100003.13;5087643;28;20198;-66
2022/12/15 03:36:02;;;;;;;27.02;14.55;;;;;;;-7.83;92.38;100011.34;5096345;28;20198;-67
2022/12/15 03:38:28;;;;;;;43.42;13.50;;;;;;;-7.78;90.22;100004.47;5095114;28;20317;-66
2022/12/15 03:40:55;;;;;;;40.50;13.93;;;;;;;-7.70;90.50;100006.94;5095427;28;20289;-66
2022/12/15 03:43:22;;;;;;;33.65;16.45;;;;;;;-7.71;91.31;100009.75;5095221;28;20290;-66
2022/12/15 03:45:48;;;;;;;32.50;15.85;;;;;;;-7.78;91.74;100015.00;5097275;28;20297;-66
2022/12/15 03:48:15;;;;;;;33.70;12.82;;;;;;;-7.77;91.81;100010.53;5091482;28;20314;-66
2022/12/15 03:50:43;;;;;;;40.83;16.38;;;;;;;-7.71;91.91;100001.88;5096782;28;20790;-66
2022/12/15 03:53:11;;;;;;;30.52;15.88;;;;;;;-7.47;91.28;100005.81;5094865;28;20664;-66
2022/12/15 03:55:37;;;;;;;34.53;14.88;;;;;;;-7.39;91.88;100016.97;5096791;28;20238;-66
2022/12/15 03:58:04;;;;;;;38.05;16.25;;;;;;;-7.36;91.83;100024.44;5090148;28;20692;-66
2022/12/15 04:00:31;;;;;;;31.95;16.67;;;;;;;-7.38;92.09;100015.94;5096897;28;20198;-66
2022/12/15 04:02:57;;;;;;;31.08;13.88;;;;;;;-7.29;91.75;100019.22;5094698;28;20237;-66
2022/12/15 04:05:27;;;;;;;24.80;12.85;;;;;;;-7.40;93.04;100031.09;5096852;28;20202;-66
2022/12/15 04:07:54;;;;;;;25.15;12.95;;;;;;;-7.39;93.50;100022.22;5090925;28;20225;-66
2022/12/15 04:10:22;;;;;;;32.65;13.65;;;;;;;-7.36;93.42;100034.97;5076377;28;20234;-66
2022/12/15 04:12:48;;;;;;;28.60;14.13;;;;;;;-7.21;93.14;100036.63;5076350;28;20265;-66
2022/12/15 04:15:15;;;;;;;34.65;16.25;;;;;;;-7.13;91.34;100032.00;5077205;28;20204;-66
2022/12/15 04:17:42;;;;;;;33.08;15.65;;;;;;;-7.28;89.39;100039.25;5096187;28;20256;-66
2022/12/15 04:20:09;;;;;;;28.02;13.45;;;;;;;-7.33;88.45;100040.84;5091090;28;20203;-69
2022/12/15 04:22:36;;;;;;;38.53;13.45;;;;;;;-7.16;90.13;100045.56;5096473;28;20202;-69
2022/12/15 05:33:35;;;;;;;30.60;12.52;;;;;;;-7.62;92.96;100121.63;5089532;28;20294;-68
2022/12/15 05:36:02;;;;;;;23.92;12.00;;;;;;;-7.62;93.21;100127.69;5095576;28;20202;-68
2022/12/15 05:38:29;;;;;;;27.55;13.02;;;;;;;-7.71;92.89;100126.22;5094451;28;20703;-68
2022/12/15 05:40:57;;;;;;;28.27;13.02;;;;;;;-7.70;93.69;100132.28;5096479;28;20229;-68
2022/12/15 05:43:23;;;;;;;28.58;14.57;;;;;;;-7.62;93.99;100122.44;5093400;28;20293;-68
2022/12/15 05:45:50;;;;;;;32.88;14.90;;;;;;;-7.62;93.10;100129.50;5092953;28;20286;-68
2022/12/15 05:48:17;;;;;;;22.90;11.70;;;;;;;-7.52;93.12;100145.78;5095982;28;20314;-67
2022/12/15 05:50:45;;;;;;;28.13;14.40;;;;;;;-7.49;92.74;100149.81;5092836;28;20218;-68
2022/12/15 05:53:11;;;;;;;30.45;13.73;;;;;;;-7.44;91.79;100171.06;5094797;28;20214;-68
2022/12/15 05:55:38;;;;;;;42.13;14.75;;;;;;;-7.57;91.54;100171.00;5088824;28;20294;-68
2022/12/15 05:58:04;;;;;;;20.88;11.18;;;;;;;-7.66;92.68;100172.97;5094001;28;20261;-68
2022/12/15 06:00:31;;;;;;;26.92;12.52;;;;;;;-7.71;92.72;100173.53;5091932;28;20657;-68
2022/12/15 06:02:58;;;;;;;26.23;13.00;;;;;;;-7.71;93.71;100172.72;5094703;28;20293;-68
2022/12/15 06:05:24;;;;;;;21.45;11.02;;;;;;;-7.65;93.79;100172.78;5091417;28;21994;-68
2022/12/15 06:07:52;;;;;;;24.98;11.98;;;;;;;-7.58;93.39;100172.81;5094578;28;20313;-67
2022/12/15 06:10:19;;;;;;;26.20;10.95;;;;;;;-7.52;93.16;100171.25;5091761;28;20230;-68
2022/12/15 06:12:46;;;;;;;26.50;12.75;;;;;;;-7.64;92.51;100163.88;5084006;28;20199;-67
2022/12/15 06:15:13;;;;;;;29.08;11.77;;;;;;;-7.72;92.67;100165.84;5092241;28;20206;-67
2022/12/15 06:17:40;;;;;;;30.90;14.23;;;;;;;-7.70;92.51;100169.94;5094119;28;20262;-68
2022/12/15 06:20:07;;;;;;;34.58;14.00;;;;;;;-7.82;91.73;100168.00;5089852;28;20206;-67
2022/12/15 06:22:34;;;;;;;32.42;11.63;;;;;;;-7.90;92.24;100167.16;5091978;28;20290;-69
2022/12/15 06:25:02;;;;;;;31.05;12.75;;;;;;;-7.72;92.24;100165.84;5089885;28;20234;-68
2022/12/15 06:27:29;;;;;;;37.63;14.30;;;;;;;-7.64;92.27;100166.53;5091714;28;20246;-68
2022/12/15 06:29:56;;;;;;;27.77;14.10;;;;;;;-7.70;91.07;100169.94;5090561;28;20210;-68
2022/12/15 06:32:22;;;;;;;35.30;14.48;;;;;;;-7.80;90.20;100163.38;5088875;28;20213;-68
2022/12/15 06:34:49;;;;;;;35.20;14.18;;;;;;;-7.87;89.37;100152.81;5093737;28;20289;-68
2022/12/15 06:37:15;;;;;;;34.45;14.95;;;;;;;-8.04;88.59;100151.47;5089809;28;20680;-68
2022/12/15 06:39:42;;;;;;;32.95;12.70;;;;;;;-8.19;88.47;100155.00;5077189;28;20231;-68
2022/12/15 06:42:10;;;;;;;41.15;11.65;;;;;;;-8.07;87.22;100163.16;5089557;28;20198;-68
2022/12/15 06:44:37;;;;;;;34.70;13.85;;;;;;;-8.18;88.11;100169.75;5090775;28;20302;-67
2022/12/15 06:47:03;;;;;;;26.55;11.40;;;;;;;-8.22;90.76;100171.13;5089449;28;20629;-68
2022/12/15 06:49:30;;;;;;;25.92;12.15;;;;;;;-8.25;89.76;100173.31;5080015;28;20298;-68
2022/12/15 06:51:57;;;;;;;29.20;12.20;;;;;;;-8.20;88.03;100184.06;5091003;28;20225;-68
2022/12/15 06:54:24;;;;;;;42.97;16.15;;;;;;;-8.29;87.34;100191.25;5084944;28;20306;-69
2022/12/15 06:56:50;;;;;;;34.97;11.75;;;;;;;-8.25;89.43;100202.22;5082949;28;20290;-68
2022/12/15 06:59:18;;;;;;;18.02;10.95;;;;;;;-8.25;89.16;100212.72;5091710;28;20253;-67
2022/12/15 07:01:45;;;;;;;29.70;10.27;;;;;;;-8.23;89.05;100215.97;5089739;28;22214;-68
2022/12/15 07:04:12;;;;;;;33.45;14.68;;;;;;;-8.33;88.17;100212.84;5089649;28;20703;-69
2022/12/15 07:06:39;;;;;;;26.92;12.13;;;;;;;-8.27;87.74;100214.72;5069502;28;20268;-68
2022/12/15 07:09:10;;;;;;;21.35;11.50;;;;;;;-8.33;85.47;100231.22;5070082;28;20595;-68
2022/12/15 07:11:37;;;;;;;19.67;12.85;;;;;;;-8.26;85.52;100222.41;5087342;28;20231;-68
2022/12/15 07:14:04;;;;;;;41.50;12.60;;;;;;;-8.40;84.84;100226.75;5090936;28;20294;-68
2022/12/15 07:16:32;;;;;;;20.55;9.85;;;;;;;-8.43;84.53;100231.56;5091670;28;20340;-68
2022/12/15 07:18:58;;;;;;;25.00;14.15;;;;;;;-8.55;85.94;100236.47;5092678;28;20236;-68
2022/12/15 07:21:25;;;;;;;27.85;11.55;;;;;;;-8.61;85.78;100239.84;5087950;28;20282;-69
2022/12/15 07:23:52;;;;;;;25.70;12.77;;;;;;;-8.57;85.07;100248.16;5079679;28;20218;-68
2022/12/15 07:26:18;;;;;;;25.92;12.43;;;;;;;-8.49;86.02;100253.31;5093436;28;20209;-68
2022/12/15 07:28:45;;;;;;;34.63;15.55;;;;;;;-8.49;86.60;100256.75;5077692;28;20313;-68
2022/12/15 07:31:11;;;;;;;33.30;13.98;;;;;;;-8.50;87.08;100247.25;5093299;28;20222;-67
2022/12/15 07:33:40;;;;;;;32.45;16.00;;;;;;;-8.36;85.85;100263.94;5091431;28;20570;-68
2022/12/15 07:36:08;;;;;;;26.17;13.35;;;;;;;-8.38;86.09;100256.25;5091127;28;20202;-68
2022/12/15 07:38:35;;;;;;;19.30;9.27;;;;;;;-8.40;83.67;100266.13;5082428;28;20227;-68
2022/12/15 07:41:03;;;;;;;21.38;11.40;;;;;;;-8.42;83.00;100265.50;5072933;28;20195;-68
2022/12/15 07:43:30;;;;;;;32.90;13.10;;;;;;;-8.32;83.56;100272.22;5082573;28;20293;-69
2022/12/15 07:45:57;;;;;;;26.42;10.90;;;;;;;-8.35;85.53;100277.88;5089301;28;20675;-70
2022/12/15 07:48:23;;;;;;;39.95;12.00;;;;;;;-8.45;85.42;100286.88;5087298;28;20245;-68
2022/12/15 07:50:56;;;;;;;24.98;11.15;;;;;;;-8.42;86.00;100280.44;5090953;28;20301;-68
2022/12/15 07:53:23;;;;;;;30.88;12.35;;;;;;;-8.39;86.80;100285.34;5092874;28;20537;-67
2022/12/15 07:55:54;;;;;;;30.20;12.48;;;;;;;-8.22;87.37;100293.78;5087293;28;20262;-68
2022/12/15 07:58:20;;;;;;;31.17;15.30;;;;;;;-8.13;87.97;100292.66;5089311;28;20662;-70
2022/12/15 08:00:47;;;;;;;22.30;12.85;;;;;;;-8.05;88.35;100289.09;5084459;28;20198;-68
2022/12/15 08:03:13;;;;;;;28.65;12.30;;;;;;;-7.94;88.66;100284.16;5067882;28;20199;-67
2022/12/15 08:05:40;;;;;;;19.67;11.95;;;;;;;-7.78;88.28;100284.91;5072725;28;20242;-69
2022/12/15 08:08:08;;;;;;;23.90;13.25;;;;;;;-7.62;89.06;100300.41;5072278;28;20799;-69
2022/12/15 08:10:38;;;;;;;22.90;11.98;;;;;;;-7.57;88.24;100298.00;5072573;28;20286;-69
2022/12/15 08:13:05;;;;;;;23.70;12.55;;;;;;;-7.46;88.60;100301.97;5072698;28;20279;-69
2022/12/15 08:15:31;;;;;;;23.30;12.52;;;;;;;-7.36;88.71;100307.69;5072778;28;20203;-69
2022/12/15 08:17:58;;;;;;;33.28;13.73;;;;;;;-7.36;89.64;100311.13;5072081;28;20281;-69
2022/12/15 08:20:24;;;;;;;21.70;11.77;;;;;;;-7.27;89.64;100311.00;5072497;28;20756;-69
2022/12/15 08:22:51;;;;;;;30.70;14.43;;;;;;;-7.22;89.40;100308.59;5076248;28;20203;-69
2022/12/15 08:25:19;;;;;;;32.53;12.95;;;;;;;-7.18;89.39;100301.94;5076323;28;20241;-69
2022/12/15 08:27:46;;;;;;;26.45;10.68;;;;;;;-7.09;89.68;100307.88;5076317;28;20254;-70
2022/12/15 08:30:13;;;;;;;27.65;14.55;;;;;;;-7.06;89.63;100313.59;5075857;28;20229;-69
2022/12/15 08:32:39;;;;;;;26.98;14.30;;;;;;;-6.97;89.89;100322.16;5076174;28;20314;-69
2022/12/15 08:35:06;;;;;;;30.17;12.80;;;;;;;-6.91;90.15;100314.28;5076175;28;20203;-69
2022/12/15 08:37:34;;;;;;;24.35;13.32;;;;;;;-6.86;89.92;100311.09;5075981;28;20255;-69
2022/12/15 08:40:00;;;;;;;35.28;13.73;;;;;;;-6.86;90.35;100314.53;5075872;28;20740;-68
2022/12/15 08:42:33;;;;;;;30.00;12.85;;;;;;;-6.76;90.75;100322.06;5076326;28;20291;-69
2022/12/15 08:44:59;;;;;;;30.23;14.48;;;;;;;-6.66;90.70;100327.78;5076268;28;20187;-69
2022/12/15 08:47:26;;;;;;;33.65;13.73;;;;;;;-6.62;91.12;100320.31;5075866;28;20219;-69
2022/12/15 08:49:53;;;;;;;48.58;14.95;;;;;;;-6.54;91.39;100327.25;5075771;28;20210;-69
2022/12/15 08:52:19;;;;;;;23.48;11.63;;;;;;;-6.38;91.09;100330.34;5075672;28;20254;-69
2022/12/15 08:54:46;;;;;;;30.83;14.15;;;;;;;-6.30;90.39;100331.19;5075664;28;20584;-69
2022/12/15 08:57:13;;;;;;;28.55;13.52;;;;;;;-6.27;90.77;100330.81;5075544;28;20302;-70
2022/12/15 08:59:41;;;;;;;27.25;13.88;;;;;;;-6.24;90.81;100333.03;5075506;28;20298;-68
2022/12/15 09:02:12;;;;;;;22.50;12.60;;;;;;;-6.24;90.89;100336.50;5075273;28;20290;-69
2022/12/15 09:04:39;;;;;;;24.75;11.93;;;;;;;-6.20;91.59;100339.53;5075522;28;20192;-69
2022/12/15 09:07:06;;;;;;;28.70;12.57;;;;;;;-6.12;91.05;100342.81;5075086;28;20742;-69
2022/12/15 09:09:33;;;;;;;32.70;13.50;;;;;;;-6.18;90.18;100340.97;5075423;28;20235;-69
2022/12/15 09:11:59;;;;;;;26.87;11.87;;;;;;;-6.14;90.94;100344.03;5075025;28;20314;-69
2022/12/15 09:14:26;;;;;;;38.25;14.18;;;;;;;-6.06;91.11;100351.78;5075050;28;20520;-69
2022/12/15 09:16:54;;;;;;;22.85;12.73;;;;;;;-6.02;90.77;100352.16;5075260;28;20226;-69
2022/12/15 09:19:20;;;;;;;34.83;13.23;;;;;;;-5.97;91.04;100349.78;5074678;28;20335;-69
2022/12/15 09:21:48;;;;;;;24.17;12.25;;;;;;;-5.91;91.14;100348.94;5074872;28;20516;-69
2022/12/15 09:24:14;;;;;;;32.88;14.43;;;;;;;-5.87;91.62;100350.97;5075089;28;20210;-69
2022/12/15 09:26:43;;;;;;;33.03;15.35;;;;;;;-5.75;91.81;100353.84;5073043;28;20202;-66
2022/12/15 09:29:11;;;;;;;27.55;13.43;;;;;;;-5.68;91.68;100364.41;5093243;28;20305;-71
2022/12/15 09:31:39;;;;;;;28.40;12.70;;;;;;;-5.60;90.83;100365.03;5089971;28;20602;-68
2022/12/15 09:34:07;;;;;;;39.92;13.93;;;;;;;-5.56;90.95;100367.25;5087371;28;20456;-67
2022/12/15 09:36:34;;;;;;;25.00;14.20;;;;;;;-5.50;90.54;100366.44;5095133;28;20293;-68
2022/12/15 09:39:02;;;;;;;26.50;13.30;;;;;;;-5.35;90.93;100373.19;5086675;28;20253;-68
2022/12/15 09:41:30;;;;;;;46.40;17.05;;;;;;;-5.19;90.78;100363.22;5089257;28;20505;-67
2022/12/15 09:44:01;;;;;;;32.67;15.57;;;;;;;-4.98;90.88;100357.72;5093235;28;20202;-70
2022/12/15 09:46:39;;;;;;;31.00;16.33;;;;;;;-4.76;90.29;100352.22;5093974;28;20259;-67
2022/12/15 09:49:13;;;;;;;40.67;16.48;;;;;;;-4.67;88.93;100358.91;5089816;28;20307;-67
2022/12/15 09:51:47;;;;;;;34.15;14.02;;;;;;;-4.54;87.86;100364.16;5094778;28;20242;-68
2022/12/15 09:54:14;;;;;;;34.47;15.57;;;;;;;-4.43;88.19;100358.22;5088722;28;20198;-68
2022/12/15 09:56:45;;;;;;;31.40;14.68;;;;;;;-4.23;87.89;100362.66;5094752;28;20440;-70
2022/12/15 09:59:26;;;;;;;48.17;19.57;;;;;;;-4.06;87.29;100366.44;5088581;28;20257;-70
2022/12/15 10:02:03;;;;;;;38.67;16.20;;;;;;;-3.99;86.53;100375.13;5092356;28;20527;-70
2022/12/15 10:04:44;;;;;;;43.67;15.63;;;;;;;-3.97;86.20;100377.59;5092753;28;20467;-69
2022/12/15 10:07:19;;;;;;;35.90;15.33;;;;;;;-3.95;85.41;100371.06;5090749;28;20548;-69
2022/12/15 10:09:45;;;;;;;35.53;13.70;;;;;;;-4.01;84.91;100373.75;5094213;28;20507;-70
2022/12/15 10:12:18;;;;;;;33.00;15.60;;;;;;;-4.00;85.23;100367.44;5072370;28;20270;-70
2022/12/15 10:14:51;;;;;;;34.67;17.27;;;;;;;-3.98;85.83;100366.22;5074099;28;20774;-69
2022/12/15 10:17:22;;;;;;;38.20;15.43;;;;;;;-3.93;85.87;100370.88;5073623;28;20465;-69
2022/12/15 10:19:55;;;;;;;39.30;14.87;;;;;;;-3.89;85.86;100369.41;5074059;28;20462;-69
2022/12/15 10:22:24;;;;;;;35.50;16.57;;;;;;;-3.88;86.36;100371.84;5073974;28;20508;-69
2022/12/15 10:24:51;;;;;;;31.33;16.30;;;;;;;-3.82;86.59;100370.19;5073886;28;20469;-69
2022/12/15 10:27:36;;;;;;;30.80;13.63;;;;;;;-3.74;86.51;100367.28;5073805;28;20544;-68
2022/12/15 10:30:05;;;;;;;30.40;15.07;;;;;;;-3.63;86.45;100369.28;5070613;28;20492;-69
2022/12/15 10:32:45;;;;;;;32.60;15.40;;;;;;;-3.58;86.19;100371.28;5088866;28;20563;-68
2022/12/15 10:35:18;;;;;;;32.37;14.27;;;;;;;-3.56;85.55;100377.16;5077850;28;20547;-69
2022/12/15 10:37:45;;;;;;;31.75;14.40;;;;;;;-3.57;85.94;100378.19;5090019;28;20456;-69
2022/12/15 10:40:15;;;;;;;36.20;16.20;;;;;;;-3.45;86.13;100379.13;5092706;28;20210;-69
2022/12/15 10:42:46;;;;;;;30.63;15.67;;;;;;;-3.32;85.25;100379.03;5090647;28;20902;-70
2022/12/15 10:45:32;;;;;;;29.40;14.67;;;;;;;-3.25;85.39;100375.53;5093376;28;20448;-70
2022/12/15 10:48:01;;;;;;;35.37;16.77;;;;;;;-3.10;85.11;100379.50;5085200;28;20817;-69
2022/12/15 10:50:29;;;;;;;34.43;15.47;;;;;;;-3.02;84.25;100381.03;5090246;28;20512;-69
2022/12/15 10:52:56;;;;;;;34.63;15.67;;;;;;;-2.95;84.06;100384.44;5089664;28;20512;-69
2022/12/15 10:55:36;;;;;;;29.47;14.70;;;;;;;-2.82;84.06;100386.97;5093747;28;20447;-69
2022/12/15 10:58:05;;;;;;;32.40;14.60;;;;;;;-2.76;83.57;100395.09;5053367;28;20496;-70
2022/12/15 11:00:33;;;;;;;34.37;15.20;;;;;;;-2.71;83.44;100396.03;5064982;28;20547;-69
2022/12/15 11:02:59;;;;;;;34.40;14.73;;;;;;;-2.80;83.80;100395.50;5073048;28;20520;-70
2022/12/15 11:05:27;;;;;;;35.70;15.30;;;;;;;-2.65;84.57;100392.53;5079305;28;20538;-69
2022/12/15 11:08:12;;;;;;;31.90;13.53;;;;;;;-2.49;83.89;100395.63;5085451;28;21064;-69
2022/12/15 11:13:33;;;;;;;34.80;16.63;;;;;;;-2.38;83.26;100403.69;5052820;28;20462;-70
2022/12/15 11:16:13;;;;;;;34.13;16.53;;;;;;;-2.23;83.19;100392.69;5053126;28;20470;-70
2022/12/15 11:18:44;;;;;;;32.33;14.00;;;;;;;-2.10;83.13;100399.69;5052746;28;20472;-69
2022/12/15 11:21:17;;;;;;;31.10;15.80;;;;;;;-2.09;83.03;100403.97;5053161;28;20510;-70
2022/12/15 11:24:01;;;;;;;29.57;15.43;;;;;;;-2.13;82.79;100406.25;5053074;28;20431;-70
2022/12/15 11:26:39;;;;;;;29.03;14.57;;;;;;;-2.20;83.04;100404.72;5053148;28;20454;-70
2022/12/15 11:29:16;;;;;;;31.23;14.60;;;;;;;-2.11;83.52;100408.69;5071395;28;20567;-70
2022/12/15 11:31:46;;;;;;;34.60;15.67;;;;;;;-2.05;83.49;100413.09;5089159;28;20471;-70
2022/12/15 11:34:14;;;;;;;30.50;14.60;;;;;;;-2.10;83.31;100415.63;5090831;28;20460;-69
2022/12/15 11:37:11;;;;;;;36.37;14.83;;;;;;;-2.10;83.06;100415.63;5090339;28;20540;-70
2022/12/15 11:39:57;;;;;;;23.90;12.10;;;;;;;-2.18;83.37;100413.25;5091474;28;20532;-70
2022/12/15 11:42:34;;;;;;;31.43;14.63;;;;;;;-2.02;83.22;100415.31;5089249;28;20548;-69
2022/12/15 11:45:08;;;;;;;33.70;15.47;;;;;;;-1.70;83.60;100418.59;5093124;28;20435;-69
2022/12/15 11:47:43;;;;;;;28.00;13.23;;;;;;;-1.44;80.58;100413.97;5088136;28;21035;-70
2022/12/15 11:50:25;;;;;;;32.80;12.97;;;;;;;-0.69;80.70;100421.41;5091063;28;20527;-70
2022/12/15 11:53:10;;;;;;;27.90;13.80;;;;;;;0.69;75.58;100422.34;5084372;28;20563;-68
2022/12/15 11:55:46;;;;;;;49.47;16.13;;;;;;;2.03;69.39;100421.41;5087535;28;20880;-69
2022/12/15 11:58:48;;;;;;;38.33;15.43;;;;;;;2.91;64.40;100423.97;5056812;28;20564;-69
2022/12/15 12:01:32;;;;;;;34.73;14.90;;;;;;;3.28;60.01;100413.31;5052470;28;20658;-69
2022/12/15 12:04:13;;;;;;;30.77;13.50;;;;;;;3.58;58.43;100403.84;5078714;28;20536;-70
2022/12/15 12:06:48;;;;;;;31.80;13.90;;;;;;;3.80;59.01;100408.00;5086389;28;20451;-70
2022/12/15 12:09:45;;;;;;;41.57;14.80;;;;;;;4.47;57.52;100411.75;5093911;28;20913;-69
2022/12/15 12:12:21;;;;;;;29.57;13.83;;;;;;;4.70;54.62;100407.75;5081832;28;20479;-69
2022/12/15 12:14:56;;;;;;;36.90;13.83;;;;;;;5.39;52.31;100410.97;5097537;28;20420;-70
2022/12/15 12:17:35;;;;;;;25.17;11.63;;;;;;;6.00;50.13;100408.97;5092649;28;20507;-70
2022/12/15 12:20:08;;;;;;;31.70;11.97;;;;;;;6.20;50.63;100405.41;5094489;28;20431;-69
2022/12/15 12:22:40;;;;;;;31.23;12.37;;;;;;;6.03;51.02;100404.94;5096628;28;20429;-69
2022/12/15 12:25:13;;;;;;;25.50;11.90;;;;;;;5.98;51.05;100404.97;5092841;28;20459;-69
2022/12/15 12:27:48;;;;;;;31.93;12.47;;;;;;;6.05;50.82;100406.25;5095014;28;21005;-69
2022/12/15 12:30:17;;;;;;;26.70;10.40;;;;;;;5.99;50.87;100417.31;5094573;28;20905;-69
2022/12/15 12:32:54;;;;;;;24.03;11.73;;;;;;;5.94;51.66;100409.28;5096300;28;20614;-69
2022/12/15 12:35:25;;;;;;;27.43;11.10;;;;;;;5.99;49.73;100409.25;5090852;28;20453;-69
2022/12/15 12:37:56;;;;;;;33.93;11.40;;;;;;;6.03;49.87;100415.69;5096271;28;20916;-69
2022/12/15 12:40:31;;;;;;;32.07;10.73;;;;;;;6.25;48.12;100418.84;5094261;28;20965;-69
2022/12/15 12:43:00;;;;;;;33.80;12.57;;;;;;;6.35;48.29;100417.16;5096257;28;20516;-69
2022/12/15 12:45:32;;;;;;;27.23;11.13;;;;;;;6.33;48.17;100420.16;5090224;28;20552;-70
2022/12/15 12:48:07;;;;;;;29.17;12.30;;;;;;;6.37;48.88;100428.44;5096056;28;20554;-70
2022/12/15 12:50:34;;;;;;;32.20;12.23;;;;;;;5.99;50.00;100425.38;5094060;28;20458;-70
2022/12/15 12:53:03;;;;;;;30.90;11.80;;;;;;;5.63;49.87;100414.72;5095589;28;21010;-69
2022/12/15 12:55:37;;;;;;;27.40;11.70;;;;;;;4.90;51.98;100416.91;5090492;28;20532;-69
2022/12/15 12:58:33;;;;;;;29.93;12.37;;;;;;;4.54;54.13;100427.56;5095897;28;20492;-69
2022/12/15 13:01:18;;;;;;;31.70;11.60;;;;;;;4.05;54.91;100420.72;5094083;28;20461;-69
2022/12/15 13:03:46;;;;;;;29.10;12.17;;;;;;;3.41;56.74;100428.94;5088306;28;20449;-69
2022/12/15 13:06:42;;;;;;;24.77;11.60;;;;;;;3.05;57.84;100427.81;5089926;28;21029;-69
2022/12/15 13:09:22;;;;;;;25.00;11.77;;;;;;;2.51;59.48;100427.84;5079474;28;20572;-70
2022/12/15 13:12:00;;;;;;;27.00;11.20;;;;;;;2.01;60.83;100421.69;5075089;28;20520;-71
2022/12/15 13:14:43;;;;;;;25.23;12.93;;;;;;;1.42;63.44;100415.28;5075041;28;20461;-68
2022/12/15 13:17:16;;;;;;;49.67;14.40;;;;;;;0.82;66.48;100415.91;5065044;28;20549;-68
2022/12/15 13:20:17;;;;;;;25.60;10.97;;;;;;;0.42;68.69;100414.94;5086796;28;20874;-67
2022/12/15 13:22:43;;;;;;;25.60;12.10;;;;;;;0.13;70.10;100418.63;5055319;28;20513;-68
2022/12/15 13:25:36;;;;;;;31.33;12.97;;;;;;;-0.07;71.42;100411.03;5066587;28;20553;-68
2022/12/15 13:28:17;;;;;;;29.40;11.40;;;;;;;-0.13;72.94;100409.34;5075092;28;20640;-68
2022/12/15 13:31:14;;;;;;;23.67;10.83;;;;;;;-0.27;73.61;100392.78;5086786;28;21893;-68
2022/12/15 13:33:51;;;;;;;28.90;12.73;;;;;;;-0.38;74.71;100398.94;5066466;28;20557;-68
2022/12/15 13:37:02;;;;;;;25.50;10.27;;;;;;;-0.50;75.18;100406.94;5075040;28;20464;-68
2022/12/15 13:39:34;;;;;;;27.30;10.30;;;;;;;-0.69;75.86;100402.78;5011483;28;20559;-68
2022/12/15 13:42:38;;;;;;;25.37;11.23;;;;;;;-0.77;75.72;100401.25;5061625;28;20456;-69
2022/12/15 13:45:24;;;;;;;27.97;10.97;;;;;;;-0.84;77.35;100412.03;5094068;28;20790;-71
2022/12/15 13:47:56;;;;;;;34.30;11.40;;;;;;;-0.90;78.46;100409.47;5065118;28;20551;-68
2022/12/15 13:50:39;;;;;;;27.43;11.30;;;;;;;-1.03;78.53;100407.81;5083833;28;20485;-67
2022/12/15 13:53:13;;;;;;;23.37;9.87;;;;;;;-1.11;79.35;100410.81;5079123;28;20468;-68